LCLK/LCA METAR and TAF weather

Enter ICAO airport designator
Station Type Date Time Source
LCLK METAR 2020/09/30 16:00 UTC NOAA

LCLK 301600Z 23009KT 9999 FEW006 28/19 Q1006 NOSIG


Station Type Date Time Source
LCLK Decoded METAR 2020/09/30 16:00 UTC NOAA

Larnaca Airport, Cyprus (LCLK) 34-53N 033-38E 2M
Sep 30, 2020 - 12:00 PM EDT / 2020.09.30 1600 UTC
Wind: from the SW (230 degrees) at 10 MPH (9 KT):0
Visibility: greater than 7 mile(s):0
Sky conditions: mostly clear
Temperature: 82 F (28 C)
Dew Point: 66 F (19 C)
Relative Humidity: 58%
Pressure (altimeter): 29.71 in. Hg (1006 hPa)
ob: LCLK 301600Z 23009KT 9999 FEW006 28/19 Q1006 NOSIG
cycle: 16

Station Type Date Time Source
LCLK TAF 2020/09/30 12:33 UTC NOAA

TAF TAF LCLK 301130Z 3012/0112 21018KT 9999 FEW030
BECMG 3019/3022 27008KT
BECMG 0108/0111 21016KT

Example: see airport list